createdAt,value
2019-05-26T00:02:40.466Z,6.57
2019-05-26T00:12:44.246Z,7.20
2019-05-26T00:22:46.277Z,6.85
2019-05-26T00:32:48.294Z,7.00
2019-05-26T00:42:50.380Z,7.30
2019-05-26T00:52:56.169Z,7.10
2019-05-26T01:02:56.149Z,7.92
2019-05-26T01:12:58.127Z,7.73
2019-05-26T01:23:00.362Z,9.30
2019-05-26T01:33:03.356Z,8.65
2019-05-26T01:43:05.776Z,9.53
2019-05-26T01:53:07.767Z,9.80
2019-05-26T02:03:09.958Z,11.87
2019-05-26T02:13:12.048Z,12.70
2019-05-26T02:23:14.112Z,16.00
2019-05-26T02:33:16.140Z,18.87
2019-05-26T02:43:18.391Z,19.63
2019-05-26T02:53:24.491Z,21.85
2019-05-26T03:13:34.027Z,25.45
2019-05-26T03:23:39.638Z,24.20
2019-05-26T03:33:41.633Z,25.15
2019-05-26T03:43:43.641Z,26.60
2019-05-26T03:53:45.846Z,27.33
2019-05-26T04:03:47.823Z,27.47
2019-05-26T04:13:49.782Z,27.00
2019-05-26T04:23:51.870Z,28.00
2019-05-26T04:33:53.841Z,28.00
2019-05-26T04:43:55.872Z,33.33
2019-05-26T04:53:57.881Z,33.53
2019-05-26T05:03:59.967Z,35.70
2019-05-26T05:14:01.860Z,33.93
2019-05-26T05:24:03.884Z,36.20
2019-05-26T05:34:05.900Z,35.67
2019-05-26T05:44:07.911Z,33.80
2019-05-26T05:54:09.866Z,34.77
2019-05-26T06:04:11.938Z,31.30
2019-05-26T06:14:13.881Z,29.53
2019-05-26T06:24:15.922Z,31.07
2019-05-26T06:34:17.897Z,30.00
2019-05-26T06:44:19.872Z,27.63
2019-05-26T06:54:21.810Z,27.37
2019-05-26T07:04:23.768Z,24.03
2019-05-26T07:14:25.937Z,22.73
2019-05-26T07:24:29.510Z,23.85
2019-05-26T07:34:31.672Z,21.93
2019-05-26T07:44:33.668Z,14.43
2019-05-26T07:54:35.614Z,13.55
2019-05-26T08:04:37.661Z,11.50
2019-05-26T08:14:39.731Z,12.85
2019-05-26T08:24:41.817Z,11.75
2019-05-26T08:34:43.831Z,9.70
2019-05-26T08:44:45.814Z,8.60
2019-05-26T09:04:49.325Z,5.05
2019-05-26T09:14:51.317Z,3.72
2019-05-26T09:24:53.321Z,3.33
2019-05-26T09:34:55.356Z,2.95
2019-05-26T09:44:57.472Z,2.83
2019-05-26T09:54:59.447Z,2.83
2019-05-26T10:15:03.698Z,2.33
2019-05-26T10:25:05.968Z,2.05
2019-05-26T10:35:08.231Z,2.40
2019-05-26T10:45:11.064Z,2.12
2019-05-26T10:55:13.159Z,2.12
2019-05-26T11:05:16.690Z,4.25
2019-05-26T11:15:18.913Z,9.95
2019-05-26T11:25:20.940Z,4.15
2019-05-26T11:35:22.987Z,7.00
2019-05-26T11:45:25.087Z,7.85
2019-05-26T11:55:27.860Z,10.82
2019-05-26T12:05:30.147Z,7.97
2019-05-26T12:15:32.263Z,2.50
2019-05-26T12:25:34.236Z,2.67
2019-05-26T12:35:36.230Z,4.83
2019-05-26T12:45:38.284Z,3.35
2019-05-26T12:55:40.376Z,3.83
2019-05-26T13:05:42.791Z,4.03
2019-05-26T13:15:44.738Z,4.30
2019-05-26T13:25:46.739Z,17.92
2019-05-26T13:35:48.711Z,21.02
2019-05-26T13:45:50.775Z,14.33
2019-05-26T13:55:52.793Z,3.22
2019-05-26T14:05:54.770Z,3.08
2019-05-26T14:15:57.943Z,2.10
2019-05-26T14:25:59.987Z,2.85
2019-05-26T14:36:02.094Z,2.58
2019-05-26T14:46:04.322Z,2.92
2019-05-26T14:56:06.328Z,2.72
2019-05-26T15:06:08.391Z,3.10
2019-05-26T15:16:10.712Z,3.08
2019-05-26T15:26:12.766Z,2.95
2019-05-26T15:36:16.161Z,3.37
2019-05-26T15:46:25.119Z,3.05
2019-05-26T15:56:22.255Z,2.98
2019-05-26T16:06:24.276Z,3.37
2019-05-26T16:16:40.210Z,2.65
2019-05-26T16:26:30.056Z,3.12
2019-05-26T16:36:33.175Z,2.80
2019-05-26T16:46:35.132Z,2.70
2019-05-26T16:56:37.080Z,2.98
2019-05-26T17:06:39.123Z,6.22
2019-05-26T17:16:41.139Z,3.70
2019-05-26T17:26:43.084Z,2.90
2019-05-26T17:36:45.158Z,2.87
2019-05-26T17:46:47.146Z,17.55
2019-05-26T17:56:49.063Z,20.85
2019-05-26T18:06:51.066Z,14.28
2019-05-26T18:16:53.081Z,7.55
2019-05-26T18:26:55.122Z,18.62
2019-05-26T18:36:57.344Z,24.72
2019-05-26T18:46:59.399Z,11.50
2019-05-26T18:57:01.384Z,27.35
2019-05-26T19:07:03.594Z,5.83
2019-05-26T19:17:06.046Z,15.95
2019-05-26T19:27:08.122Z,6.87
2019-05-26T19:37:10.128Z,5.55
2019-05-26T19:57:13.591Z,8.70
2019-05-26T20:17:17.237Z,4.15
2019-05-26T20:37:20.749Z,3.30
2019-05-26T20:57:24.309Z,7.65
2019-05-26T21:07:27.236Z,9.00
2019-05-26T21:17:29.232Z,8.35
2019-05-26T21:27:31.328Z,5.20
2019-05-26T21:37:34.442Z,5.60
2019-05-26T21:47:36.519Z,4.70
2019-05-26T21:57:38.483Z,4.25
2019-05-26T22:07:40.567Z,4.28
2019-05-26T22:17:42.499Z,4.20
2019-05-26T22:27:44.476Z,3.98
2019-05-26T22:37:46.738Z,4.47
2019-05-26T22:57:50.156Z,3.30
2019-05-26T23:07:52.160Z,3.72
2019-05-26T23:17:54.131Z,3.92
2019-05-26T23:27:56.123Z,3.60
2019-05-26T23:37:58.179Z,4.17
2019-05-26T23:48:00.263Z,4.90
2019-05-26T23:58:02.287Z,4.45
